sensor_id;sensor_type;location;lat;lon;timestamp;P1;durP1;ratioP1;P2;durP2;ratioP2
59476;SDS011;45713;49.766;6.592;2022-07-23T00:00:11;11.07;;;9.20;;
59476;SDS011;45713;49.766;6.592;2022-07-23T00:02:37;11.07;;;9.25;;
59476;SDS011;45713;49.766;6.592;2022-07-23T00:05:03;10.73;;;9.00;;
59476;SDS011;45713;49.766;6.592;2022-07-23T00:07:29;11.93;;;9.65;;
59476;SDS011;45713;49.766;6.592;2022-07-23T00:09:55;11.95;;;9.68;;
59476;SDS011;45713;49.766;6.592;2022-07-23T00:12:21;11.57;;;9.60;;
59476;SDS011;45713;49.766;6.592;2022-07-23T00:14:47;11.57;;;9.10;;
59476;SDS011;45713;49.766;6.592;2022-07-23T00:17:13;11.98;;;9.73;;
59476;SDS011;45713;49.766;6.592;2022-07-23T00:19:39;12.90;;;10.13;;
59476;SDS011;45713;49.766;6.592;2022-07-23T00:22:05;11.93;;;9.23;;
59476;SDS011;45713;49.766;6.592;2022-07-23T00:24:31;14.05;;;9.75;;
59476;SDS011;45713;49.766;6.592;2022-07-23T00:26:57;12.82;;;9.05;;
59476;SDS011;45713;49.766;6.592;2022-07-23T00:29:23;11.05;;;9.30;;
59476;SDS011;45713;49.766;6.592;2022-07-23T00:31:49;13.02;;;9.50;;
59476;SDS011;45713;49.766;6.592;2022-07-23T00:34:15;13.48;;;9.63;;
59476;SDS011;45713;49.766;6.592;2022-07-23T00:36:41;13.40;;;9.50;;
59476;SDS011;45713;49.766;6.592;2022-07-23T00:39:07;12.00;;;9.73;;
59476;SDS011;45713;49.766;6.592;2022-07-23T00:41:34;13.07;;;10.27;;
59476;SDS011;45713;49.766;6.592;2022-07-23T00:46:45;15.32;;;10.55;;
59476;SDS011;45713;49.766;6.592;2022-07-23T00:49:11;14.32;;;10.65;;
59476;SDS011;45713;49.766;6.592;2022-07-23T00:51:37;14.07;;;10.57;;
59476;SDS011;45713;49.766;6.592;2022-07-23T00:54:03;15.02;;;11.73;;
59476;SDS011;45713;49.766;6.592;2022-07-23T00:56:29;16.90;;;11.18;;
59476;SDS011;45713;49.766;6.592;2022-07-23T00:58:56;14.43;;;11.00;;
59476;SDS011;45713;49.766;6.592;2022-07-23T01:01:22;14.20;;;10.77;;
59476;SDS011;45713;49.766;6.592;2022-07-23T01:03:48;14.60;;;10.80;;
59476;SDS011;45713;49.766;6.592;2022-07-23T01:06:14;15.23;;;11.07;;
59476;SDS011;45713;49.766;6.592;2022-07-23T01:08:40;14.98;;;11.93;;
59476;SDS011;45713;49.766;6.592;2022-07-23T01:11:07;12.90;;;10.00;;
59476;SDS011;45713;49.766;6.592;2022-07-23T01:13:33;13.95;;;10.73;;
59476;SDS011;45713;49.766;6.592;2022-07-23T01:15:59;15.95;;;10.40;;
59476;SDS011;45713;49.766;6.592;2022-07-23T01:18:25;14.40;;;10.90;;
59476;SDS011;45713;49.766;6.592;2022-07-23T01:20:51;14.40;;;11.32;;
59476;SDS011;45713;49.766;6.592;2022-07-23T01:23:17;16.13;;;11.07;;
59476;SDS011;45713;49.766;6.592;2022-07-23T01:25:53;15.15;;;10.52;;
59476;SDS011;45713;49.766;6.592;2022-07-23T01:28:19;12.55;;;10.38;;
59476;SDS011;45713;49.766;6.592;2022-07-23T01:30:45;17.27;;;11.82;;
59476;SDS011;45713;49.766;6.592;2022-07-23T01:33:11;13.57;;;10.43;;
59476;SDS011;45713;49.766;6.592;2022-07-23T01:35:37;15.50;;;10.32;;
59476;SDS011;45713;49.766;6.592;2022-07-23T01:38:03;13.48;;;10.30;;
59476;SDS011;45713;49.766;6.592;2022-07-23T01:40:30;14.85;;;10.60;;
59476;SDS011;45713;49.766;6.592;2022-07-23T01:42:56;12.70;;;10.10;;
59476;SDS011;45713;49.766;6.592;2022-07-23T01:45:22;14.90;;;10.88;;
59476;SDS011;45713;49.766;6.592;2022-07-23T01:47:48;14.57;;;10.50;;
59476;SDS011;45713;49.766;6.592;2022-07-23T01:50:14;14.75;;;10.40;;
59476;SDS011;45713;49.766;6.592;2022-07-23T01:52:40;13.32;;;9.93;;
59476;SDS011;45713;49.766;6.592;2022-07-23T01:55:06;14.05;;;10.18;;
59476;SDS011;45713;49.766;6.592;2022-07-23T01:57:32;12.48;;;9.43;;
59476;SDS011;45713;49.766;6.592;2022-07-23T01:59:58;13.85;;;10.70;;
59476;SDS011;45713;49.766;6.592;2022-07-23T02:02:25;13.15;;;10.02;;
59476;SDS011;45713;49.766;6.592;2022-07-23T02:04:51;14.15;;;10.35;;
59476;SDS011;45713;49.766;6.592;2022-07-23T02:07:17;15.02;;;10.63;;
59476;SDS011;45713;49.766;6.592;2022-07-23T02:09:43;14.18;;;9.95;;
59476;SDS011;45713;49.766;6.592;2022-07-23T02:12:09;13.65;;;10.07;;
59476;SDS011;45713;49.766;6.592;2022-07-23T02:14:35;13.07;;;9.90;;
59476;SDS011;45713;49.766;6.592;2022-07-23T02:17:01;11.95;;;9.70;;
59476;SDS011;45713;49.766;6.592;2022-07-23T02:19:27;12.73;;;10.23;;
59476;SDS011;45713;49.766;6.592;2022-07-23T02:21:53;13.95;;;10.48;;
59476;SDS011;45713;49.766;6.592;2022-07-23T02:24:19;14.18;;;10.45;;
59476;SDS011;45713;49.766;6.592;2022-07-23T02:26:45;16.20;;;10.98;;
59476;SDS011;45713;49.766;6.592;2022-07-23T02:29:11;13.98;;;10.50;;
59476;SDS011;45713;49.766;6.592;2022-07-23T02:31:38;13.57;;;10.18;;
59476;SDS011;45713;49.766;6.592;2022-07-23T02:34:04;14.25;;;9.75;;
59476;SDS011;45713;49.766;6.592;2022-07-23T02:36:30;14.75;;;10.77;;
59476;SDS011;45713;49.766;6.592;2022-07-23T02:38:56;14.60;;;11.13;;
59476;SDS011;45713;49.766;6.592;2022-07-23T02:41:22;14.57;;;10.57;;
59476;SDS011;45713;49.766;6.592;2022-07-23T02:43:48;14.80;;;10.48;;
59476;SDS011;45713;49.766;6.592;2022-07-23T02:46:14;15.40;;;10.32;;
59476;SDS011;45713;49.766;6.592;2022-07-23T02:48:40;14.23;;;10.30;;
59476;SDS011;45713;49.766;6.592;2022-07-23T02:51:06;15.20;;;10.07;;
59476;SDS011;45713;49.766;6.592;2022-07-23T02:53:32;15.02;;;10.48;;
59476;SDS011;45713;49.766;6.592;2022-07-23T02:55:58;14.38;;;11.05;;
59476;SDS011;45713;49.766;6.592;2022-07-23T02:58:24;15.55;;;10.98;;
59476;SDS011;45713;49.766;6.592;2022-07-23T03:00:51;16.67;;;11.13;;
59476;SDS011;45713;49.766;6.592;2022-07-23T03:03:17;14.18;;;11.32;;
59476;SDS011;45713;49.766;6.592;2022-07-23T03:05:43;13.70;;;10.25;;
59476;SDS011;45713;49.766;6.592;2022-07-23T03:08:09;13.52;;;10.05;;
59476;SDS011;45713;49.766;6.592;2022-07-23T03:10:35;15.75;;;11.52;;
59476;SDS011;45713;49.766;6.592;2022-07-23T03:13:01;14.93;;;10.23;;
59476;SDS011;45713;49.766;6.592;2022-07-23T03:15:27;15.32;;;10.80;;
59476;SDS011;45713;49.766;6.592;2022-07-23T03:17:53;14.57;;;10.65;;
59476;SDS011;45713;49.766;6.592;2022-07-23T03:20:19;17.08;;;10.95;;
59476;SDS011;45713;49.766;6.592;2022-07-23T03:22:45;13.45;;;9.70;;
59476;SDS011;45713;49.766;6.592;2022-07-23T03:25:11;17.33;;;11.93;;
59476;SDS011;45713;49.766;6.592;2022-07-23T03:27:37;16.23;;;11.45;;
59476;SDS011;45713;49.766;6.592;2022-07-23T03:30:04;16.70;;;11.10;;
59476;SDS011;45713;49.766;6.592;2022-07-23T03:32:30;17.80;;;12.25;;
59476;SDS011;45713;49.766;6.592;2022-07-23T03:34:56;17.35;;;12.45;;
59476;SDS011;45713;49.766;6.592;2022-07-23T03:37:22;16.63;;;11.45;;
59476;SDS011;45713;49.766;6.592;2022-07-23T03:39:48;14.73;;;11.82;;
59476;SDS011;45713;49.766;6.592;2022-07-23T03:42:14;17.42;;;11.65;;
59476;SDS011;45713;49.766;6.592;2022-07-23T03:44:40;16.70;;;11.65;;
59476;SDS011;45713;49.766;6.592;2022-07-23T03:47:06;16.95;;;11.75;;
59476;SDS011;45713;49.766;6.592;2022-07-23T03:49:33;16.02;;;11.32;;
59476;SDS011;45713;49.766;6.592;2022-07-23T03:51:59;17.02;;;11.70;;
59476;SDS011;45713;49.766;6.592;2022-07-23T03:54:25;19.08;;;12.23;;
59476;SDS011;45713;49.766;6.592;2022-07-23T03:56:51;18.00;;;12.35;;
59476;SDS011;45713;49.766;6.592;2022-07-23T03:59:17;17.83;;;13.00;;
59476;SDS011;45713;49.766;6.592;2022-07-23T04:01:43;18.88;;;12.93;;
59476;SDS011;45713;49.766;6.592;2022-07-23T04:04:09;18.35;;;13.00;;
59476;SDS011;45713;49.766;6.592;2022-07-23T04:06:35;17.40;;;12.40;;
59476;SDS011;45713;49.766;6.592;2022-07-23T04:09:01;18.35;;;12.23;;
59476;SDS011;45713;49.766;6.592;2022-07-23T04:11:27;18.00;;;12.98;;
59476;SDS011;45713;49.766;6.592;2022-07-23T04:13:53;19.25;;;13.32;;
59476;SDS011;45713;49.766;6.592;2022-07-23T04:16:19;18.02;;;13.23;;
59476;SDS011;45713;49.766;6.592;2022-07-23T04:18:45;22.08;;;12.52;;
59476;SDS011;45713;49.766;6.592;2022-07-23T04:21:11;21.48;;;14.07;;
59476;SDS011;45713;49.766;6.592;2022-07-23T04:23:37;21.05;;;13.75;;
59476;SDS011;45713;49.766;6.592;2022-07-23T04:26:03;19.63;;;13.15;;
59476;SDS011;45713;49.766;6.592;2022-07-23T04:28:29;20.08;;;13.30;;
59476;SDS011;45713;49.766;6.592;2022-07-23T04:30:56;19.60;;;14.05;;
59476;SDS011;45713;49.766;6.592;2022-07-23T04:33:22;20.35;;;13.65;;
59476;SDS011;45713;49.766;6.592;2022-07-23T04:35:48;20.88;;;13.88;;
59476;SDS011;45713;49.766;6.592;2022-07-23T04:38:14;20.27;;;13.63;;
59476;SDS011;45713;49.766;6.592;2022-07-23T04:40:40;19.83;;;13.55;;
59476;SDS011;45713;49.766;6.592;2022-07-23T04:43:06;18.70;;;13.20;;
59476;SDS011;45713;49.766;6.592;2022-07-23T04:45:32;21.05;;;14.02;;
59476;SDS011;45713;49.766;6.592;2022-07-23T04:47:58;19.30;;;13.90;;
59476;SDS011;45713;49.766;6.592;2022-07-23T04:50:24;20.80;;;13.35;;
59476;SDS011;45713;49.766;6.592;2022-07-23T04:52:50;18.85;;;13.13;;
59476;SDS011;45713;49.766;6.592;2022-07-23T04:55:16;19.70;;;12.82;;
59476;SDS011;45713;49.766;6.592;2022-07-23T04:57:43;20.83;;;13.75;;
59476;SDS011;45713;49.766;6.592;2022-07-23T05:00:09;19.58;;;13.20;;
59476;SDS011;45713;49.766;6.592;2022-07-23T05:02:36;23.48;;;13.77;;
59476;SDS011;45713;49.766;6.592;2022-07-23T05:05:02;20.02;;;13.35;;
59476;SDS011;45713;49.766;6.592;2022-07-23T05:07:28;19.25;;;12.90;;
59476;SDS011;45713;49.766;6.592;2022-07-23T05:09:54;19.13;;;12.30;;
59476;SDS011;45713;49.766;6.592;2022-07-23T05:12:20;17.02;;;12.27;;
59476;SDS011;45713;49.766;6.592;2022-07-23T05:14:46;20.27;;;13.68;;
59476;SDS011;45713;49.766;6.592;2022-07-23T05:17:11;21.52;;;13.43;;
59476;SDS011;45713;49.766;6.592;2022-07-23T05:19:37;17.30;;;12.43;;
59476;SDS011;45713;49.766;6.592;2022-07-23T05:22:03;19.08;;;12.57;;
59476;SDS011;45713;49.766;6.592;2022-07-23T05:24:29;17.80;;;12.25;;
59476;SDS011;45713;49.766;6.592;2022-07-23T05:26:55;18.77;;;12.85;;
59476;SDS011;45713;49.766;6.592;2022-07-23T05:29:21;19.08;;;13.35;;
59476;SDS011;45713;49.766;6.592;2022-07-23T05:31:47;17.63;;;13.00;;
59476;SDS011;45713;49.766;6.592;2022-07-23T05:34:13;17.00;;;12.43;;
59476;SDS011;45713;49.766;6.592;2022-07-23T05:36:39;18.83;;;12.32;;
59476;SDS011;45713;49.766;6.592;2022-07-23T05:39:05;18.73;;;13.13;;
59476;SDS011;45713;49.766;6.592;2022-07-23T05:41:31;18.42;;;13.13;;
59476;SDS011;45713;49.766;6.592;2022-07-23T05:43:57;19.60;;;13.05;;
59476;SDS011;45713;49.766;6.592;2022-07-23T05:46:24;18.77;;;12.88;;
59476;SDS011;45713;49.766;6.592;2022-07-23T05:48:50;17.88;;;12.60;;
59476;SDS011;45713;49.766;6.592;2022-07-23T05:51:22;19.80;;;13.18;;
59476;SDS011;45713;49.766;6.592;2022-07-23T05:53:48;17.70;;;12.73;;
59476;SDS011;45713;49.766;6.592;2022-07-23T05:56:15;18.50;;;12.93;;
59476;SDS011;45713;49.766;6.592;2022-07-23T05:58:41;17.25;;;12.10;;
59476;SDS011;45713;49.766;6.592;2022-07-23T06:01:07;17.20;;;11.85;;
59476;SDS011;45713;49.766;6.592;2022-07-23T06:03:34;17.38;;;12.30;;
59476;SDS011;45713;49.766;6.592;2022-07-23T06:06:00;17.63;;;12.38;;
59476;SDS011;45713;49.766;6.592;2022-07-23T06:08:26;17.10;;;11.88;;
59476;SDS011;45713;49.766;6.592;2022-07-23T06:10:52;17.27;;;12.27;;
59476;SDS011;45713;49.766;6.592;2022-07-23T06:13:18;16.90;;;12.10;;
59476;SDS011;45713;49.766;6.592;2022-07-23T06:15:44;16.67;;;12.02;;
59476;SDS011;45713;49.766;6.592;2022-07-23T06:18:10;16.63;;;12.48;;
59476;SDS011;45713;49.766;6.592;2022-07-23T06:20:36;18.80;;;11.70;;
59476;SDS011;45713;49.766;6.592;2022-07-23T06:23:03;16.65;;;12.18;;
59476;SDS011;45713;49.766;6.592;2022-07-23T06:25:29;16.27;;;11.32;;
59476;SDS011;45713;49.766;6.592;2022-07-23T06:27:55;17.73;;;11.50;;
59476;SDS011;45713;49.766;6.592;2022-07-23T06:30:21;16.10;;;10.88;;
59476;SDS011;45713;49.766;6.592;2022-07-23T06:32:47;16.00;;;11.70;;
59476;SDS011;45713;49.766;6.592;2022-07-23T06:35:14;14.75;;;11.07;;
59476;SDS011;45713;49.766;6.592;2022-07-23T06:37:40;19.55;;;10.98;;
59476;SDS011;45713;49.766;6.592;2022-07-23T06:40:06;14.13;;;10.55;;
59476;SDS011;45713;49.766;6.592;2022-07-23T06:42:32;14.40;;;10.82;;
59476;SDS011;45713;49.766;6.592;2022-07-23T06:45:01;15.05;;;10.60;;
59476;SDS011;45713;49.766;6.592;2022-07-23T06:47:27;15.38;;;11.18;;
59476;SDS011;45713;49.766;6.592;2022-07-23T06:49:53;13.90;;;10.30;;
59476;SDS011;45713;49.766;6.592;2022-07-23T06:52:19;14.73;;;10.05;;
59476;SDS011;45713;49.766;6.592;2022-07-23T06:54:45;12.68;;;9.85;;
59476;SDS011;45713;49.766;6.592;2022-07-23T06:57:11;12.10;;;9.25;;
59476;SDS011;45713;49.766;6.592;2022-07-23T06:59:37;13.60;;;9.82;;
59476;SDS011;45713;49.766;6.592;2022-07-23T07:02:05;12.85;;;9.25;;
59476;SDS011;45713;49.766;6.592;2022-07-23T07:04:31;13.10;;;9.77;;
59476;SDS011;45713;49.766;6.592;2022-07-23T07:06:57;11.40;;;9.48;;
59476;SDS011;45713;49.766;6.592;2022-07-23T07:09:23;11.48;;;9.23;;
59476;SDS011;45713;49.766;6.592;2022-07-23T07:11:49;11.15;;;8.63;;
59476;SDS011;45713;49.766;6.592;2022-07-23T07:14:15;12.45;;;8.88;;
59476;SDS011;45713;49.766;6.592;2022-07-23T07:16:41;10.55;;;8.38;;
59476;SDS011;45713;49.766;6.592;2022-07-23T07:19:07;9.52;;;8.18;;
59476;SDS011;45713;49.766;6.592;2022-07-23T07:21:34;10.50;;;8.27;;
59476;SDS011;45713;49.766;6.592;2022-07-23T07:24:00;11.57;;;8.73;;
59476;SDS011;45713;49.766;6.592;2022-07-23T07:26:26;12.02;;;8.93;;
59476;SDS011;45713;49.766;6.592;2022-07-23T07:28:52;11.85;;;8.48;;
59476;SDS011;45713;49.766;6.592;2022-07-23T07:31:18;11.38;;;8.55;;
59476;SDS011;45713;49.766;6.592;2022-07-23T07:33:44;12.20;;;9.15;;
59476;SDS011;45713;49.766;6.592;2022-07-23T07:36:10;9.73;;;8.23;;
59476;SDS011;45713;49.766;6.592;2022-07-23T07:38:36;11.13;;;8.02;;
59476;SDS011;45713;49.766;6.592;2022-07-23T07:41:02;9.90;;;7.97;;
59476;SDS011;45713;49.766;6.592;2022-07-23T07:43:28;12.98;;;8.70;;
59476;SDS011;45713;49.766;6.592;2022-07-23T07:45:54;10.88;;;8.32;;
59476;SDS011;45713;49.766;6.592;2022-07-23T07:48:21;10.60;;;7.90;;
59476;SDS011;45713;49.766;6.592;2022-07-23T07:50:47;10.55;;;8.45;;
59476;SDS011;45713;49.766;6.592;2022-07-23T07:53:13;10.18;;;8.45;;
59476;SDS011;45713;49.766;6.592;2022-07-23T07:55:39;10.90;;;7.60;;
59476;SDS011;45713;49.766;6.592;2022-07-23T07:58:05;10.10;;;7.80;;
59476;SDS011;45713;49.766;6.592;2022-07-23T08:00:31;12.50;;;8.43;;
59476;SDS011;45713;49.766;6.592;2022-07-23T08:02:57;10.50;;;8.38;;
59476;SDS011;45713;49.766;6.592;2022-07-23T08:05:24;10.70;;;8.43;;
59476;SDS011;45713;49.766;6.592;2022-07-23T08:07:50;9.55;;;7.75;;
59476;SDS011;45713;49.766;6.592;2022-07-23T08:10:17;9.85;;;7.40;;
59476;SDS011;45713;49.766;6.592;2022-07-23T08:15:10;9.40;;;7.50;;
59476;SDS011;45713;49.766;6.592;2022-07-23T08:17:36;11.20;;;7.90;;
59476;SDS011;45713;49.766;6.592;2022-07-23T08:20:03;8.05;;;6.78;;
59476;SDS011;45713;49.766;6.592;2022-07-23T08:25:07;8.00;;;6.80;;
59476;SDS011;45713;49.766;6.592;2022-07-23T08:27:34;8.65;;;6.70;;
59476;SDS011;45713;49.766;6.592;2022-07-23T08:30:00;9.75;;;7.20;;
59476;SDS011;45713;49.766;6.592;2022-07-23T08:32:26;7.95;;;6.63;;
59476;SDS011;45713;49.766;6.592;2022-07-23T08:34:51;8.50;;;7.03;;
59476;SDS011;45713;49.766;6.592;2022-07-23T08:37:17;8.35;;;6.90;;
59476;SDS011;45713;49.766;6.592;2022-07-23T08:39:43;8.60;;;7.13;;
59476;SDS011;45713;49.766;6.592;2022-07-23T08:42:09;9.27;;;7.05;;
59476;SDS011;45713;49.766;6.592;2022-07-23T08:44:35;8.18;;;7.32;;
59476;SDS011;45713;49.766;6.592;2022-07-23T08:47:01;8.50;;;7.10;;
59476;SDS011;45713;49.766;6.592;2022-07-23T08:49:28;8.30;;;6.90;;
59476;SDS011;45713;49.766;6.592;2022-07-23T08:51:55;9.18;;;7.20;;
59476;SDS011;45713;49.766;6.592;2022-07-23T08:54:21;7.97;;;7.15;;
59476;SDS011;45713;49.766;6.592;2022-07-23T08:56:48;8.27;;;7.43;;
59476;SDS011;45713;49.766;6.592;2022-07-23T08:59:14;8.38;;;6.78;;
59476;SDS011;45713;49.766;6.592;2022-07-23T09:01:40;7.82;;;7.03;;
59476;SDS011;45713;49.766;6.592;2022-07-23T09:04:06;7.72;;;6.93;;
59476;SDS011;45713;49.766;6.592;2022-07-23T09:06:32;8.88;;;7.97;;
59476;SDS011;45713;49.766;6.592;2022-07-23T09:08:58;11.07;;;8.05;;
59476;SDS011;45713;49.766;6.592;2022-07-23T09:11:43;9.15;;;7.82;;
59476;SDS011;45713;49.766;6.592;2022-07-23T09:14:11;9.32;;;7.30;;
59476;SDS011;45713;49.766;6.592;2022-07-23T09:16:37;8.68;;;7.40;;
59476;SDS011;45713;49.766;6.592;2022-07-23T09:19:04;8.23;;;7.32;;
59476;SDS011;45713;49.766;6.592;2022-07-23T09:21:34;8.30;;;7.45;;
59476;SDS011;45713;49.766;6.592;2022-07-23T09:24:01;7.57;;;6.55;;
59476;SDS011;45713;49.766;6.592;2022-07-23T09:26:28;9.40;;;7.82;;
59476;SDS011;45713;49.766;6.592;2022-07-23T09:29:05;8.48;;;7.57;;
59476;SDS011;45713;49.766;6.592;2022-07-23T09:31:32;10.57;;;8.45;;
59476;SDS011;45713;49.766;6.592;2022-07-23T09:36:48;8.15;;;7.32;;
59476;SDS011;45713;49.766;6.592;2022-07-23T09:39:15;9.77;;;7.65;;
59476;SDS011;45713;49.766;6.592;2022-07-23T09:41:46;7.40;;;6.60;;
59476;SDS011;45713;49.766;6.592;2022-07-23T09:44:16;8.02;;;6.75;;
59476;SDS011;45713;49.766;6.592;2022-07-23T09:46:43;8.80;;;7.30;;
59476;SDS011;45713;49.766;6.592;2022-07-23T09:49:11;8.55;;;7.00;;
59476;SDS011;45713;49.766;6.592;2022-07-23T09:51:44;9.57;;;7.10;;
59476;SDS011;45713;49.766;6.592;2022-07-23T09:54:21;8.98;;;6.88;;
59476;SDS011;45713;49.766;6.592;2022-07-23T09:56:47;9.07;;;7.90;;
59476;SDS011;45713;49.766;6.592;2022-07-23T09:59:14;8.82;;;7.88;;
59476;SDS011;45713;49.766;6.592;2022-07-23T10:01:43;8.35;;;7.22;;
59476;SDS011;45713;49.766;6.592;2022-07-23T10:04:10;8.90;;;7.47;;
59476;SDS011;45713;49.766;6.592;2022-07-23T10:06:37;8.80;;;7.53;;
59476;SDS011;45713;49.766;6.592;2022-07-23T10:09:03;9.73;;;7.07;;
59476;SDS011;45713;49.766;6.592;2022-07-23T10:11:29;9.07;;;7.47;;
59476;SDS011;45713;49.766;6.592;2022-07-23T10:13:56;8.48;;;7.47;;
59476;SDS011;45713;49.766;6.592;2022-07-23T10:16:26;8.80;;;7.25;;
59476;SDS011;45713;49.766;6.592;2022-07-23T10:18:52;8.98;;;6.55;;
59476;SDS011;45713;49.766;6.592;2022-07-23T10:21:21;8.98;;;7.63;;
59476;SDS011;45713;49.766;6.592;2022-07-23T10:27:38;10.05;;;8.38;;
59476;SDS011;45713;49.766;6.592;2022-07-23T10:29:35;8.52;;;7.70;;
59476;SDS011;45713;49.766;6.592;2022-07-23T10:32:04;8.85;;;7.95;;
59476;SDS011;45713;49.766;6.592;2022-07-23T10:39:32;8.63;;;7.47;;
59476;SDS011;45713;49.766;6.592;2022-07-23T10:44:45;8.23;;;7.38;;
59476;SDS011;45713;49.766;6.592;2022-07-23T10:47:12;8.93;;;7.55;;
59476;SDS011;45713;49.766;6.592;2022-07-23T10:49:47;7.88;;;7.07;;
59476;SDS011;45713;49.766;6.592;2022-07-23T10:54:47;8.85;;;7.93;;
59476;SDS011;45713;49.766;6.592;2022-07-23T10:57:14;8.60;;;7.40;;
59476;SDS011;45713;49.766;6.592;2022-07-23T11:02:26;8.27;;;7.47;;
59476;SDS011;45713;49.766;6.592;2022-07-23T11:04:53;8.50;;;7.38;;
59476;SDS011;45713;49.766;6.592;2022-07-23T11:07:19;8.07;;;7.28;;
59476;SDS011;45713;49.766;6.592;2022-07-23T11:09:46;8.55;;;7.47;;
59476;SDS011;45713;49.766;6.592;2022-07-23T11:17:23;9.40;;;7.38;;
59476;SDS011;45713;49.766;6.592;2022-07-23T11:25:10;8.63;;;7.63;;
59476;SDS011;45713;49.766;6.592;2022-07-23T11:27:40;8.25;;;7.45;;
59476;SDS011;45713;49.766;6.592;2022-07-23T11:30:07;9.15;;;7.85;;
59476;SDS011;45713;49.766;6.592;2022-07-23T11:32:36;9.30;;;7.25;;
59476;SDS011;45713;49.766;6.592;2022-07-23T11:35:18;8.77;;;7.90;;
59476;SDS011;45713;49.766;6.592;2022-07-23T11:37:44;9.93;;;7.38;;
59476;SDS011;45713;49.766;6.592;2022-07-23T11:40:12;8.73;;;7.38;;
59476;SDS011;45713;49.766;6.592;2022-07-23T11:42:39;10.77;;;7.70;;
59476;SDS011;45713;49.766;6.592;2022-07-23T11:45:06;8.98;;;7.93;;
59476;SDS011;45713;49.766;6.592;2022-07-23T11:47:33;8.20;;;7.30;;
59476;SDS011;45713;49.766;6.592;2022-07-23T11:50:00;8.63;;;7.70;;
59476;SDS011;45713;49.766;6.592;2022-07-23T11:52:27;8.98;;;8.15;;
59476;SDS011;45713;49.766;6.592;2022-07-23T11:54:54;9.43;;;7.93;;
59476;SDS011;45713;49.766;6.592;2022-07-23T11:57:25;8.70;;;7.90;;
59476;SDS011;45713;49.766;6.592;2022-07-23T11:59:53;8.63;;;7.60;;
59476;SDS011;45713;49.766;6.592;2022-07-23T12:02:20;10.13;;;8.57;;
59476;SDS011;45713;49.766;6.592;2022-07-23T12:04:47;9.43;;;8.15;;
59476;SDS011;45713;49.766;6.592;2022-07-23T12:07:33;9.68;;;8.10;;
59476;SDS011;45713;49.766;6.592;2022-07-23T12:10:21;9.38;;;8.35;;
59476;SDS011;45713;49.766;6.592;2022-07-23T12:15:15;8.93;;;8.02;;
59476;SDS011;45713;49.766;6.592;2022-07-23T12:17:43;8.85;;;7.95;;
59476;SDS011;45713;49.766;6.592;2022-07-23T12:20:11;9.30;;;8.40;;
59476;SDS011;45713;49.766;6.592;2022-07-23T12:22:42;9.50;;;7.88;;
59476;SDS011;45713;49.766;6.592;2022-07-23T12:25:10;10.95;;;7.90;;
59476;SDS011;45713;49.766;6.592;2022-07-23T12:27:36;10.90;;;8.40;;
59476;SDS011;45713;49.766;6.592;2022-07-23T12:30:25;9.45;;;8.07;;
59476;SDS011;45713;49.766;6.592;2022-07-23T12:32:53;8.73;;;7.82;;
59476;SDS011;45713;49.766;6.592;2022-07-23T12:35:20;8.93;;;7.70;;
59476;SDS011;45713;49.766;6.592;2022-07-23T12:37:47;10.52;;;8.18;;
59476;SDS011;45713;49.766;6.592;2022-07-23T12:42:46;9.95;;;8.07;;
59476;SDS011;45713;49.766;6.592;2022-07-23T12:45:13;9.70;;;8.13;;
59476;SDS011;45713;49.766;6.592;2022-07-23T12:50:34;9.10;;;8.20;;
59476;SDS011;45713;49.766;6.592;2022-07-23T12:53:05;8.48;;;7.53;;
59476;SDS011;45713;49.766;6.592;2022-07-23T12:55:31;8.50;;;7.65;;
59476;SDS011;45713;49.766;6.592;2022-07-23T12:58:07;8.88;;;7.97;;
59476;SDS011;45713;49.766;6.592;2022-07-23T13:00:48;8.80;;;7.90;;
59476;SDS011;45713;49.766;6.592;2022-07-23T13:03:24;8.65;;;7.68;;
59476;SDS011;45713;49.766;6.592;2022-07-23T13:05:50;9.27;;;8.38;;
59476;SDS011;45713;49.766;6.592;2022-07-23T13:08:16;8.48;;;7.38;;
59476;SDS011;45713;49.766;6.592;2022-07-23T13:10:42;8.95;;;8.05;;
59476;SDS011;45713;49.766;6.592;2022-07-23T13:13:12;9.52;;;8.50;;
59476;SDS011;45713;49.766;6.592;2022-07-23T13:15:38;9.48;;;8.48;;
59476;SDS011;45713;49.766;6.592;2022-07-23T13:18:04;10.05;;;8.38;;
59476;SDS011;45713;49.766;6.592;2022-07-23T13:20:31;10.15;;;8.93;;
59476;SDS011;45713;49.766;6.592;2022-07-23T13:22:59;9.77;;;8.48;;
59476;SDS011;45713;49.766;6.592;2022-07-23T13:25:25;10.43;;;8.75;;
59476;SDS011;45713;49.766;6.592;2022-07-23T13:27:51;9.52;;;8.45;;
59476;SDS011;45713;49.766;6.592;2022-07-23T13:30:17;10.05;;;8.48;;
59476;SDS011;45713;49.766;6.592;2022-07-23T13:32:43;10.63;;;8.60;;
59476;SDS011;45713;49.766;6.592;2022-07-23T13:35:09;10.20;;;8.98;;
59476;SDS011;45713;49.766;6.592;2022-07-23T13:37:35;10.30;;;8.48;;
59476;SDS011;45713;49.766;6.592;2022-07-23T13:40:01;8.93;;;8.02;;
59476;SDS011;45713;49.766;6.592;2022-07-23T13:42:27;10.65;;;8.77;;
59476;SDS011;45713;49.766;6.592;2022-07-23T13:44:53;12.70;;;8.48;;
59476;SDS011;45713;49.766;6.592;2022-07-23T13:47:19;10.00;;;8.63;;
59476;SDS011;45713;49.766;6.592;2022-07-23T13:49:45;9.27;;;8.27;;
59476;SDS011;45713;49.766;6.592;2022-07-23T13:52:11;9.27;;;8.25;;
59476;SDS011;45713;49.766;6.592;2022-07-23T13:54:37;9.45;;;8.60;;
59476;SDS011;45713;49.766;6.592;2022-07-23T13:57:03;9.63;;;8.35;;
59476;SDS011;45713;49.766;6.592;2022-07-23T13:59:29;9.73;;;8.65;;
59476;SDS011;45713;49.766;6.592;2022-07-23T14:01:55;9.35;;;8.10;;
59476;SDS011;45713;49.766;6.592;2022-07-23T14:04:21;9.43;;;8.40;;
59476;SDS011;45713;49.766;6.592;2022-07-23T14:06:47;10.23;;;8.80;;
59476;SDS011;45713;49.766;6.592;2022-07-23T14:09:13;9.18;;;8.27;;
59476;SDS011;45713;49.766;6.592;2022-07-23T14:11:39;9.23;;;8.32;;
59476;SDS011;45713;49.766;6.592;2022-07-23T14:14:05;9.40;;;8.50;;
59476;SDS011;45713;49.766;6.592;2022-07-23T14:16:31;10.23;;;9.18;;
59476;SDS011;45713;49.766;6.592;2022-07-23T14:18:57;11.00;;;8.98;;
59476;SDS011;45713;49.766;6.592;2022-07-23T14:21:23;9.98;;;8.90;;
59476;SDS011;45713;49.766;6.592;2022-07-23T14:23:49;11.50;;;9.40;;
59476;SDS011;45713;49.766;6.592;2022-07-23T14:26:15;9.48;;;8.38;;
59476;SDS011;45713;49.766;6.592;2022-07-23T14:28:41;9.57;;;8.65;;
59476;SDS011;45713;49.766;6.592;2022-07-23T14:31:07;9.73;;;8.38;;
59476;SDS011;45713;49.766;6.592;2022-07-23T14:33:33;8.95;;;8.13;;
59476;SDS011;45713;49.766;6.592;2022-07-23T14:35:59;10.00;;;8.98;;
59476;SDS011;45713;49.766;6.592;2022-07-23T14:38:26;9.35;;;8.02;;
59476;SDS011;45713;49.766;6.592;2022-07-23T14:40:52;9.70;;;8.70;;
59476;SDS011;45713;49.766;6.592;2022-07-23T14:43:18;11.00;;;9.50;;
59476;SDS011;45713;49.766;6.592;2022-07-23T14:45:44;10.60;;;9.50;;
59476;SDS011;45713;49.766;6.592;2022-07-23T14:48:11;9.75;;;8.75;;
59476;SDS011;45713;49.766;6.592;2022-07-23T14:50:37;10.85;;;9.23;;
59476;SDS011;45713;49.766;6.592;2022-07-23T14:53:03;10.57;;;9.10;;
59476;SDS011;45713;49.766;6.592;2022-07-23T14:55:30;9.82;;;8.93;;
59476;SDS011;45713;49.766;6.592;2022-07-23T14:57:56;10.13;;;9.13;;
59476;SDS011;45713;49.766;6.592;2022-07-23T15:00:22;10.02;;;9.02;;
59476;SDS011;45713;49.766;6.592;2022-07-23T15:02:48;10.45;;;9.32;;
59476;SDS011;45713;49.766;6.592;2022-07-23T15:05:14;10.40;;;9.30;;
59476;SDS011;45713;49.766;6.592;2022-07-23T15:07:40;9.48;;;8.52;;
59476;SDS011;45713;49.766;6.592;2022-07-23T15:10:07;10.32;;;9.23;;
59476;SDS011;45713;49.766;6.592;2022-07-23T15:12:33;10.98;;;9.80;;
59476;SDS011;45713;49.766;6.592;2022-07-23T15:14:59;10.60;;;9.50;;